Latest Coastal Weather Observations for Rottnest Island

IDW60701

Issued at 11:03 pm WST Monday 16 January 2017 (issued every 10 minutes, with the page automatically refreshed every 10 minutes)

About coastal observations | Map of coastal stations | Coastal observations for WA | Marine services | Other Formats
Station Details ID: 009193 Name: ROTTNEST ISLAND Lat: -32.01 Lon: 115.50 Height: 43.1 m
Data from the previous 72 hours. | See also: Recent months at Rottnest Island
Date/Time
WST
Temp
°C
Wind Pressure Rain since
9am
mm
Weather Cloud Vis
km
Sea
Height
m
Swell
Dir  Spd
kts
Gust
kts
hPa Trend Height
m
Period
s
Dir
16/11:00pm 19.0 S 33 39 1009.9 - 0.0 - - - - - - -
16/10:40pm 19.0 S 32 42 1009.8 - 0.0 - - - - - - -
16/10:30pm 19.2 S 34 41 1009.8 - 0.0 - - - - - - -
16/10:00pm 19.4 S 32 40 1010.3 - 0.0 - - - - - - -
16/09:42pm 19.5 S 29 41 1010.0 - 0.0 - - - - - - -
16/09:30pm 19.6 S 30 39 1010.0 - 0.0 - - - - - - -
16/09:00pm 19.8 S 26 34 1010.1 - 0.0 - - - - - - -
16/08:58pm 19.7 S 26 36 1010.0 - 0.0 - - - - - - -
16/08:30pm 19.8 S 29 37 1009.9 - 0.0 - - - - - - -
16/08:00pm 19.6 SSW 30 37 1009.8 - 0.0 - - - - - - -
16/07:30pm 19.5 SSW 29 36 1009.3 - 0.0 - - - - - - -
16/07:00pm 19.6 SSW 29 37 1009.4 - 0.0 - - - - - - -
16/06:30pm 20.2 SSW 26 34 1009.4 - 0.0 - - - - - - -
16/06:00pm 20.5 SSW 27 34 1009.2 - 0.0 - - - - - - -
16/05:30pm 21.0 SSW 28 34 1008.9 - 0.0 - - - - - - -
16/05:00pm 21.3 SSW 29 35 1008.8 - 0.0 - - - - - - -
16/04:30pm 21.6 SSW 29 35 1008.9 - 0.0 - - - - - - -
16/04:00pm 21.6 SSW 28 34 1009.1 - 0.0 - - - - - - -
16/03:30pm 21.5 SSW 28 35 1009.3 - 0.0 - - - - - - -
16/03:00pm 21.8 SSW 27 34 1009.4 - 0.0 - - - - - - -
16/02:30pm 21.8 SSW 27 33 1009.5 - 0.0 - - - - - - -
16/02:00pm 21.3 SSW 26 33 1009.7 - 0.0 - - - - - - -
16/01:30pm 21.1 SSW 25 32 1009.8 - 0.0 - - - - - - -
16/01:00pm 21.6 SSW 25 30 1010.0 - 0.0 - - - - - - -
16/12:30pm 21.3 SSW 25 29 1010.1 - 0.0 - - - - - - -
16/12:00pm 22.2 S 22 28 1010.3 - 0.0 - - - - - - -
16/11:30am 21.6 S 21 26 1010.3 - 0.0 - - - - - - -
16/11:00am 21.3 S 20 24 1010.5 - 0.0 - - - - - - -
16/10:30am 21.2 S 21 25 1010.7 - 0.0 - - - - - - -
16/10:00am 20.7 S 22 26 1010.4 - 0.0 - - - - - - -
16/09:30am 21.0 S 19 23 1010.5 - 0.0 - - - - - - -
16/09:00am 20.4 S 21 26 1010.3 - 0.0 - - - - - - -
16/08:30am 20.5 SSE 21 25 1010.5 - 0.0 - - - - - - -
16/08:00am 20.1 SSE 23 28 1010.2 - 0.0 - - - - - - -
16/07:30am 19.6 SSE 23 29 1009.9 - 0.0 - - - - - - -
16/07:00am 19.3 SSE 24 30 1009.7 - 0.0 - - - - - - -
16/06:30am 19.1 S 27 32 1009.3 - 0.0 - - - - - - -
16/06:00am 19.1 S 25 30 1009.1 - 0.0 - - - - - - -
16/05:30am 18.9 S 20 24 1009.0 - 0.0 - - - - - - -
16/05:00am 19.1 S 21 25 1008.6 - 0.0 - - - - - - -
16/04:30am 19.0 S 22 26 1008.5 - 0.0 - - - - - - -
16/04:00am 19.1 S 23 28 1008.1 - 0.0 - - - - - - -
16/03:30am 19.2 S 22 27 1007.8 - 0.0 - - - - - - -
16/03:00am 19.5 S 23 30 1007.6 - 0.0 - - - - - - -
16/02:30am 19.6 S 26 31 1007.6 - 0.0 - - - - - - -
16/02:00am 19.6 S 26 32 1007.4 - 0.0 - - - - - - -
16/01:30am 19.5 S 27 33 1006.9 - 0.0 - - - - - - -
16/01:00am 19.5 S 26 33 1007.1 - 0.0 - - - - - - -
16/12:30am 19.6 S 26 32 1007.2 - 0.0 - - - - - - -
16/12:00am 19.8 S 28 34 1007.2 - 0.0 - - - - - - -
 
Date/Time
WST
Temp
°C
Wind Pressure Rain since
9am
mm
Weather Cloud Vis
km
Sea
Height
m
Swell
Dir  Spd
kts
Gust
kts
hPa Trend Height
m
Period
s
Dir
15/11:30pm 19.8 S 26 34 1007.3 - 0.0 - - - - - - -
15/11:00pm 19.9 S 27 34 1007.0 - 0.0 - - - - - - -
15/10:30pm 20.1 S 26 33 1007.1 - 0.0 - - - - - - -
15/10:00pm 20.3 S 26 33 1007.3 - 0.0 - - - - - - -
15/09:30pm 20.0 SSW 27 33 1007.3 - 0.0 - - - - - - -
15/09:00pm 20.0 SSW 26 33 1007.4 - 0.0 - - - - - - -
15/08:30pm 19.8 SSW 27 33 1007.4 - 0.0 - - - - - - -
15/08:00pm 19.5 SSW 25 33 1007.5 - 0.0 - - - - - - -
15/07:30pm 19.7 SSW 23 31 1007.3 - 0.0 - - - - - - -
15/07:00pm 20.0 SSW 25 31 1007.1 - 0.0 - - - - - - -
15/06:30pm 20.3 SSW 23 31 1006.9 - 0.0 - - - - - - -
15/06:00pm 20.7 SSW 24 30 1006.7 - 0.0 - - - - - - -
15/05:30pm 21.3 SSW 22 27 1006.5 - 0.0 - - - - - - -
15/05:00pm 21.3 SSW 21 27 1006.4 - 0.0 - - - - - - -
15/04:30pm 22.9 SSW 19 26 1006.4 - 0.0 - - - - - - -
15/04:00pm 22.4 SSW 22 28 1006.4 - 0.0 - - - - - - -
15/03:30pm 21.9 SSW 22 27 1006.3 - 0.0 - - - - - - -
15/03:00pm 22.6 SSW 22 28 1006.4 - 0.0 - - - - - - -
15/02:30pm 22.6 SSW 22 27 1006.4 - 0.0 - - - - - - -
15/02:00pm 22.9 SSW 23 26 1006.7 - 0.0 - - - - - - -
15/01:30pm 22.9 SSW 21 25 1007.3 - 0.0 - - - - - - -
15/01:00pm 22.4 SSW 20 24 1007.4 - 0.0 - - - - - - -
15/12:30pm 22.7 SSW 20 22 1007.6 - 0.0 - - - - - - -
15/12:00pm 22.6 SSW 19 23 1007.8 - 0.0 - - - - - - -
15/11:30am 22.4 SSW 18 21 1008.0 - 0.0 - - - - - - -
15/11:00am 22.5 SSW 17 20 1008.3 - 0.0 - - - - - - -
15/10:30am 22.5 S 17 21 1008.4 - 0.0 - - - - - - -
15/10:00am 23.0 S 17 20 1008.4 - 0.0 - - - - - - -
15/09:30am 22.2 S 17 20 1008.5 - 0.0 - - - - - - -
15/09:00am 22.4 S 18 21 1008.5 - 0.0 - - - - - - -
15/08:30am 22.2 S 15 19 1008.9 - 0.0 - - - - - - -
15/08:00am 22.1 S 15 18 1008.8 - 0.0 - - - - - - -
15/07:30am 21.6 S 16 18 1008.7 - 0.0 - - - - - - -
15/07:00am 20.9 S 17 19 1008.6 - 0.0 - - - - - - -
15/06:30am 20.6 S 16 19 1008.8 - 0.0 - - - - - - -
15/06:00am 20.1 S 16 20 1008.6 - 0.0 - - - - - - -
15/05:30am 20.0 S 16 19 1008.5 - 0.0 - - - - - - -
15/05:00am 20.1 S 14 16 1008.5 - 0.0 - - - - - - -
15/04:30am 20.1 S 11 14 1008.5 - 0.0 - - - - - - -
15/04:00am 20.2 S 12 15 1008.3 - 0.0 - - - - - - -
15/03:30am 20.2 S 12 14 1008.4 - 0.0 - - - - - - -
15/03:00am 20.2 S 11 13 1008.4 - 0.0 - - - - - - -
15/02:30am 20.3 S 11 14 1008.6 - 0.0 - - - - - - -
15/02:00am 20.5 S 11 14 1008.8 - 0.0 - - - - - - -
15/01:30am 20.7 S 11 13 1008.9 - 0.0 - - - - - - -
15/01:00am 20.8 S 13 15 1009.2 - 0.0 - - - - - - -
15/12:30am 20.7 S 12 14 1009.7 - 0.0 - - - - - - -
15/12:00am 20.8 S 12 13 1010.0 - 0.0 - - - - - - -
 
Date/Time
WST
Temp
°C
Wind Pressure Rain since
9am
mm
Weather Cloud Vis
km
Sea
Height
m
Swell
Dir  Spd
kts
Gust
kts
hPa Trend Height
m
Period
s
Dir
14/11:30pm 20.8 S 12 14 1010.2 - 0.0 - - - - - - -
14/11:00pm 20.8 S 12 15 1010.2 - 0.0 - - - - - - -
14/10:30pm 20.8 S 14 16 1010.3 - 0.0 - - - - - - -
14/10:00pm 20.8 S 14 18 1010.4 - 0.0 - - - - - - -
14/09:30pm 20.7 S 16 19 1010.3 - 0.0 - - - - - - -
14/09:00pm 20.8 S 15 19 1010.2 - 0.0 - - - - - - -
14/08:30pm 20.8 S 14 18 1010.2 - 0.0 - - - - - - -
14/08:00pm 21.1 S 14 17 1010.1 - 0.0 - - - - - - -
14/07:30pm 21.4 S 16 20 1009.8 - 0.0 - - - - - - -
14/07:00pm 21.9 S 18 21 1009.6 - 0.0 - - - - - - -
14/06:30pm 22.5 S 17 21 1009.4 - 0.0 - - - - - - -
14/06:00pm 23.2 S 17 21 1009.2 - 0.0 - - - - - - -
14/05:30pm 23.0 SSW 17 21 1009.2 - 0.0 - - - - - - -
14/05:00pm 23.7 SSW 17 23 1009.3 - 0.0 - - - - - - -
14/04:30pm 23.7 SSW 18 21 1009.5 - 0.0 - - - - - - -
14/04:00pm 23.7 SSW 15 18 1009.9 - 0.0 - - - - - - -
14/03:30pm 24.8 S 15 19 1010.4 - 0.0 - - - - - - -
14/03:00pm 24.2 S 16 19 1010.7 - 0.0 - - - - - - -
14/02:30pm 25.0 S 15 18 1010.9 - 0.0 - - - - - - -
14/02:00pm 25.4 S 14 18 1011.2 - 0.0 - - - - - - -
14/01:30pm 23.9 S 15 18 1011.6 - 0.0 - - - - - - -
14/01:00pm 24.8 S 13 16 1011.9 - 0.0 - - - - - - -
14/12:30pm 23.0 S 13 15 1012.4 - 0.0 - - - - - - -
14/12:00pm 23.9 S 14 16 1012.5 - 0.0 - - - - - - -
14/11:30am 24.0 S 13 15 1012.8 - 0.0 - - - - - - -
14/11:00am 24.6 S 12 15 1012.9 - 0.0 - - - - - - -
14/10:30am 24.5 S 11 13 1013.2 - 0.0 - - - - - - -
14/10:00am 24.4 SSE 8 11 1013.5 - 0.0 - - - - - - -
14/09:30am 23.6 SE 10 14 1013.4 - 0.0 - - - - - - -
14/09:00am 23.5 E 10 15 1013.2 - 0.0 - - - - - - -
14/08:30am 23.1 ENE 9 13 1013.3 - 0.0 - - - - - - -
14/08:00am 21.7 E 7 11 1013.5 - 0.0 - - - - - - -
14/07:30am 21.0 ESE 9 12 1013.6 - 0.0 - - - - - - -
14/07:00am 20.3 ESE 8 11 1013.4 - 0.0 - - - - - - -
14/06:30am 19.7 E 11 15 1013.3 - 0.0 - - - - - - -
14/06:00am 19.2 E 11 16 1013.1 - 0.0 - - - - - - -
14/05:30am 18.7 E 9 15 1012.8 - 0.0 - - - - - - -
14/05:00am 18.9 E 13 18 1012.4 - 0.0 - - - - - - -
14/04:30am 18.7 E 11 14 1012.5 - 0.0 - - - - - - -
14/04:00am 18.8 E 11 17 1012.4 - 0.0 - - - - - - -
14/03:30am 18.9 E 10 14 1012.3 - 0.0 - - - - - - -
14/03:00am 18.8 ESE 10 14 1012.4 - 0.0 - - - - - - -
14/02:30am 19.0 ESE 10 15 1012.2 - 0.0 - - - - - - -
14/02:00am 19.5 SE 15 19 1012.2 - 0.0 - - - - - - -
14/01:30am 19.5 S 15 17 1012.3 - 0.0 - - - - - - -
14/01:00am 19.5 SSE 16 19 1012.6 - 0.0 - - - - - - -
14/12:30am 19.7 S 17 21 1012.9 - 0.0 - - - - - - -
14/12:00am 19.8 S 19 22 1013.1 - 0.0 - - - - - - -
 
Date/Time
WST
Temp
°C
Wind Pressure Rain since
9am
mm
Weather Cloud Vis
km
Sea
Height
m
Swell
Dir  Spd
kts
Gust
kts
hPa Trend Height
m
Period
s
Dir
13/11:30pm 19.9 S 19 22 1013.3 - 0.0 - - - - - - -

Other Formats:

Comma delimited format used in spreadsheet applications
http://www.bom.gov.au/fwo/IDW60701/IDW60701.94602.axf

JavaScript Object Notation format (JSON) in row-major order
http://www.bom.gov.au/fwo/IDW60701/IDW60701.94602.json